DFW Airport, Texas
Current Conditions -  °F | °C
As of 2:53 AM on Saturday 01 Nov 2014 (Local Time) from KDFW Reporting Station
Clear Clear  
Wind Chill: 38°   Ceiling: Unl
Heat Index: 43°   Visibility: 10mi
Dew Point: 29°   Wind: 8mph
Humidity: 58%   Direction: 30°NNE
Pressure: 30.37"   Gusts: NA
Location:  32.9°N, 97.03°W
Report Text: KDFW 010753Z 03007KT 10SM CLR 06/M02 A3037 RMK AO2 SLP281 T00611017
Loading
Personal Weather Stations






























Interactive Weather Map
Tropical Storm Tracking
New forecast layout! Learn more

10-Day Weather Forecast

Advertisements
Track Severe Weather on mobile